sensor_id;sensor_type;location;lat;lon;timestamp;pressure;altitude;pressure_sealevel;temperature;humidity
74346;BME280;62776;50.518;6.732;2023-02-28T00:00:44;97558.53;;;-1.22;98.44
74346;BME280;62776;50.518;6.732;2023-02-28T00:03:36;97556.72;;;-1.25;98.95
74346;BME280;62776;50.518;6.732;2023-02-28T00:06:25;97560.78;;;-1.28;99.09
74346;BME280;62776;50.518;6.732;2023-02-28T00:09:11;97559.88;;;-1.29;99.78
74346;BME280;62776;50.518;6.732;2023-02-28T00:11:56;97556.34;;;-1.32;100.00
74346;BME280;62776;50.518;6.732;2023-02-28T00:14:54;97550.97;;;-1.37;100.00
74346;BME280;62776;50.518;6.732;2023-02-28T00:17:41;97555.06;;;-1.40;100.00
74346;BME280;62776;50.518;6.732;2023-02-28T00:20:28;97551.38;;;-1.45;100.00
74346;BME280;62776;50.518;6.732;2023-02-28T00:23:14;97549.66;;;-1.46;100.00
74346;BME280;62776;50.518;6.732;2023-02-28T00:26:04;97551.09;;;-1.51;100.00
74346;BME280;62776;50.518;6.732;2023-02-28T00:28:52;97557.59;;;-1.56;100.00
74346;BME280;62776;50.518;6.732;2023-02-28T00:31:40;97560.25;;;-1.55;100.00
74346;BME280;62776;50.518;6.732;2023-02-28T00:34:32;97553.88;;;-1.63;100.00
74346;BME280;62776;50.518;6.732;2023-02-28T00:37:24;97553.69;;;-1.66;100.00
74346;BME280;62776;50.518;6.732;2023-02-28T00:40:16;97557.75;;;-1.69;100.00
74346;BME280;62776;50.518;6.732;2023-02-28T00:43:03;97556.03;;;-1.70;100.00
74346;BME280;62776;50.518;6.732;2023-02-28T00:45:50;97556.66;;;-1.74;100.00
74346;BME280;62776;50.518;6.732;2023-02-28T00:48:37;97559.69;;;-1.82;100.00
74346;BME280;62776;50.518;6.732;2023-02-28T00:51:23;97559.69;;;-1.82;100.00
74346;BME280;62776;50.518;6.732;2023-02-28T00:54:17;97558.69;;;-1.84;100.00
74346;BME280;62776;50.518;6.732;2023-02-28T00:57:03;97561.97;;;-1.86;100.00
74346;BME280;62776;50.518;6.732;2023-02-28T00:59:51;97560.78;;;-1.93;100.00
74346;BME280;62776;50.518;6.732;2023-02-28T01:02:40;97567.53;;;-1.93;100.00
74346;BME280;62776;50.518;6.732;2023-02-28T01:05:27;97564.88;;;-1.95;100.00
74346;BME280;62776;50.518;6.732;2023-02-28T01:08:13;97565.53;;;-1.99;100.00
74346;BME280;62776;50.518;6.732;2023-02-28T01:11:15;97566.28;;;-2.16;100.00
74346;BME280;62776;50.518;6.732;2023-02-28T01:14:05;97569.97;;;-2.11;100.00
74346;BME280;62776;50.518;6.732;2023-02-28T01:16:51;97564.31;;;-2.05;100.00
74346;BME280;62776;50.518;6.732;2023-02-28T01:19:39;97570.06;;;-2.09;100.00
74346;BME280;62776;50.518;6.732;2023-02-28T01:22:28;97574.28;;;-2.10;100.00
74346;BME280;62776;50.518;6.732;2023-02-28T01:25:14;97575.78;;;-2.13;100.00
74346;BME280;62776;50.518;6.732;2023-02-28T01:28:01;97572.97;;;-2.18;100.00
74346;BME280;62776;50.518;6.732;2023-02-28T01:30:53;97566.44;;;-2.29;100.00
74346;BME280;62776;50.518;6.732;2023-02-28T01:33:40;97574.13;;;-2.27;100.00
74346;BME280;62776;50.518;6.732;2023-02-28T01:36:32;97575.72;;;-2.29;100.00
74346;BME280;62776;50.518;6.732;2023-02-28T01:39:19;97571.41;;;-2.30;100.00
74346;BME280;62776;50.518;6.732;2023-02-28T01:42:12;97569.41;;;-2.36;100.00
74346;BME280;62776;50.518;6.732;2023-02-28T01:48:10;97566.72;;;-2.39;100.00
74346;BME280;62776;50.518;6.732;2023-02-28T01:51:03;97563.84;;;-2.45;100.00
74346;BME280;62776;50.518;6.732;2023-02-28T01:54:05;97563.56;;;-2.50;100.00
74346;BME280;62776;50.518;6.732;2023-02-28T01:57:04;97564.81;;;-2.58;100.00
74346;BME280;62776;50.518;6.732;2023-02-28T02:00:00;97555.63;;;-2.56;100.00
74346;BME280;62776;50.518;6.732;2023-02-28T02:03:05;97554.72;;;-2.56;100.00
74346;BME280;62776;50.518;6.732;2023-02-28T02:05:34;97550.34;;;-2.59;100.00
74346;BME280;62776;50.518;6.732;2023-02-28T02:08:24;97549.13;;;-2.65;100.00
74346;BME280;62776;50.518;6.732;2023-02-28T02:11:19;97545.19;;;-2.75;100.00
74346;BME280;62776;50.518;6.732;2023-02-28T02:21:03;97537.84;;;-3.00;100.00
74346;BME280;62776;50.518;6.732;2023-02-28T02:40:38;97538.53;;;-3.02;100.00
74346;BME280;62776;50.518;6.732;2023-02-28T02:44:10;97541.88;;;-3.18;100.00
74346;BME280;62776;50.518;6.732;2023-02-28T02:47:05;97541.59;;;-3.08;100.00
74346;BME280;62776;50.518;6.732;2023-02-28T02:49:56;97535.66;;;-3.08;100.00
74346;BME280;62776;50.518;6.732;2023-02-28T02:52:51;97536.25;;;-3.12;100.00
74346;BME280;62776;50.518;6.732;2023-02-28T02:55:43;97541.16;;;-3.15;100.00
74346;BME280;62776;50.518;6.732;2023-02-28T02:58:34;97532.66;;;-3.16;100.00
74346;BME280;62776;50.518;6.732;2023-02-28T03:01:24;97536.06;;;-3.15;100.00
74346;BME280;62776;50.518;6.732;2023-02-28T03:04:18;97536.78;;;-3.18;100.00
74346;BME280;62776;50.518;6.732;2023-02-28T03:07:05;97538.72;;;-3.14;100.00
74346;BME280;62776;50.518;6.732;2023-02-28T03:09:55;97541.88;;;-3.18;100.00
74346;BME280;62776;50.518;6.732;2023-02-28T03:12:52;97543.63;;;-3.17;100.00
74346;BME280;62776;50.518;6.732;2023-02-28T03:16:14;97540.72;;;-3.23;100.00
74346;BME280;62776;50.518;6.732;2023-02-28T03:22:46;97536.59;;;-3.21;100.00
74346;BME280;62776;50.518;6.732;2023-02-28T03:26:04;97545.63;;;-3.26;100.00
74346;BME280;62776;50.518;6.732;2023-02-28T03:32:26;97528.19;;;-3.20;100.00
74346;BME280;62776;50.518;6.732;2023-02-28T03:35:21;97529.09;;;-3.19;100.00
74346;BME280;62776;50.518;6.732;2023-02-28T03:38:17;97521.34;;;-3.21;100.00
74346;BME280;62776;50.518;6.732;2023-02-28T03:41:18;97534.88;;;-3.22;100.00
74346;BME280;62776;50.518;6.732;2023-02-28T03:44:13;97532.03;;;-3.26;100.00
74346;BME280;62776;50.518;6.732;2023-02-28T03:47:06;97533.81;;;-3.25;100.00
74346;BME280;62776;50.518;6.732;2023-02-28T03:50:03;97525.75;;;-3.33;100.00
74346;BME280;62776;50.518;6.732;2023-02-28T03:53:00;97518.91;;;-3.34;100.00
74346;BME280;62776;50.518;6.732;2023-02-28T03:59:20;97530.47;;;-3.39;100.00
74346;BME280;62776;50.518;6.732;2023-02-28T04:02:14;97533.59;;;-3.43;100.00
74346;BME280;62776;50.518;6.732;2023-02-28T04:05:01;97540.44;;;-3.42;100.00
74346;BME280;62776;50.518;6.732;2023-02-28T04:07:51;97530.97;;;-3.44;100.00
74346;BME280;62776;50.518;6.732;2023-02-28T04:10:45;97533.41;;;-3.46;100.00
74346;BME280;62776;50.518;6.732;2023-02-28T04:13:34;97538.50;;;-3.46;100.00
74346;BME280;62776;50.518;6.732;2023-02-28T04:16:21;97523.25;;;-3.46;100.00
74346;BME280;62776;50.518;6.732;2023-02-28T04:19:09;97526.41;;;-3.50;100.00
74346;BME280;62776;50.518;6.732;2023-02-28T04:21:56;97532.09;;;-3.54;100.00
74346;BME280;62776;50.518;6.732;2023-02-28T04:24:44;97537.78;;;-3.58;100.00
74346;BME280;62776;50.518;6.732;2023-02-28T04:27:41;97537.06;;;-3.70;100.00
74346;BME280;62776;50.518;6.732;2023-02-28T04:30:32;97535.78;;;-3.64;100.00
74346;BME280;62776;50.518;6.732;2023-02-28T04:33:18;97536.53;;;-3.65;100.00
74346;BME280;62776;50.518;6.732;2023-02-28T04:36:11;97536.22;;;-4.11;100.00
74346;BME280;62776;50.518;6.732;2023-02-28T04:38:57;97538.56;;;-3.74;100.00
74346;BME280;62776;50.518;6.732;2023-02-28T04:41:44;97538.63;;;-3.72;100.00
74346;BME280;62776;50.518;6.732;2023-02-28T04:44:42;97541.75;;;-3.76;100.00
74346;BME280;62776;50.518;6.732;2023-02-28T04:47:31;97536.88;;;-3.73;100.00
74346;BME280;62776;50.518;6.732;2023-02-28T04:50:25;97536.03;;;-3.74;100.00
74346;BME280;62776;50.518;6.732;2023-02-28T04:53:13;97534.25;;;-3.75;100.00
74346;BME280;62776;50.518;6.732;2023-02-28T04:56:00;97529.94;;;-3.76;100.00
74346;BME280;62776;50.518;6.732;2023-02-28T04:58:57;97533.28;;;-3.77;100.00
74346;BME280;62776;50.518;6.732;2023-02-28T05:01:50;97537.03;;;-3.85;100.00
74346;BME280;62776;50.518;6.732;2023-02-28T05:04:42;97543.66;;;-3.87;100.00
74346;BME280;62776;50.518;6.732;2023-02-28T05:07:37;97537.72;;;-3.87;100.00
74346;BME280;62776;50.518;6.732;2023-02-28T05:10:33;97550.13;;;-3.92;100.00
74346;BME280;62776;50.518;6.732;2023-02-28T05:13:46;97542.78;;;-4.15;100.00
74346;BME280;62776;50.518;6.732;2023-02-28T05:16:51;97545.38;;;-4.00;100.00
74346;BME280;62776;50.518;6.732;2023-02-28T05:19:37;97545.38;;;-4.00;100.00
74346;BME280;62776;50.518;6.732;2023-02-28T05:22:25;97554.56;;;-4.02;100.00
74346;BME280;62776;50.518;6.732;2023-02-28T05:25:19;97550.06;;;-4.06;100.00
74346;BME280;62776;50.518;6.732;2023-02-28T05:28:08;97548.34;;;-4.07;100.00
74346;BME280;62776;50.518;6.732;2023-02-28T05:31:01;97549.91;;;-4.09;100.00
74346;BME280;62776;50.518;6.732;2023-02-28T05:33:52;97555.66;;;-4.12;100.00
74346;BME280;62776;50.518;6.732;2023-02-28T05:36:39;97552.06;;;-4.15;100.00
74346;BME280;62776;50.518;6.732;2023-02-28T05:39:25;97548.56;;;-4.18;100.00
74346;BME280;62776;50.518;6.732;2023-02-28T05:42:12;97553.63;;;-4.18;100.00
74346;BME280;62776;50.518;6.732;2023-02-28T05:45:00;97554.50;;;-4.17;100.00
74346;BME280;62776;50.518;6.732;2023-02-28T05:47:46;97551.09;;;-4.18;100.00
74346;BME280;62776;50.518;6.732;2023-02-28T05:50:33;97551.88;;;-4.19;100.00
74346;BME280;62776;50.518;6.732;2023-02-28T05:53:20;97551.69;;;-4.22;100.00
74346;BME280;62776;50.518;6.732;2023-02-28T05:56:07;97552.66;;;-4.20;100.00
74346;BME280;62776;50.518;6.732;2023-02-28T05:58:54;97545.13;;;-4.18;100.00
74346;BME280;62776;50.518;6.732;2023-02-28T06:01:43;97541.53;;;-4.22;100.00
74346;BME280;62776;50.518;6.732;2023-02-28T06:04:39;97542.22;;;-4.24;100.00
74346;BME280;62776;50.518;6.732;2023-02-28T06:07:26;97542.41;;;-4.21;100.00
74346;BME280;62776;50.518;6.732;2023-02-28T06:10:14;97550.91;;;-4.21;100.00
74346;BME280;62776;50.518;6.732;2023-02-28T06:13:01;97552.66;;;-4.20;100.00
74346;BME280;62776;50.518;6.732;2023-02-28T06:15:52;97555.09;;;-4.21;100.00
74346;BME280;62776;50.518;6.732;2023-02-28T06:18:41;97557.53;;;-4.23;100.00
74346;BME280;62776;50.518;6.732;2023-02-28T06:21:28;97557.72;;;-4.20;100.00
74346;BME280;62776;50.518;6.732;2023-02-28T06:24:20;97562.41;;;-4.26;100.00
74346;BME280;62776;50.518;6.732;2023-02-28T06:27:08;97555.78;;;-4.24;100.00
74346;BME280;62776;50.518;6.732;2023-02-28T06:29:55;97555.78;;;-4.24;100.00
74346;BME280;62776;50.518;6.732;2023-02-28T06:32:41;97557.53;;;-4.23;100.00
74346;BME280;62776;50.518;6.732;2023-02-28T06:35:28;97571.22;;;-4.21;100.00
74346;BME280;62776;50.518;6.732;2023-02-28T06:38:14;97565.44;;;-4.18;100.00
74346;BME280;62776;50.518;6.732;2023-02-28T06:41:01;97576.28;;;-4.21;100.00
74346;BME280;62776;50.518;6.732;2023-02-28T06:43:47;97573.94;;;-4.18;100.00
74346;BME280;62776;50.518;6.732;2023-02-28T06:46:35;97579.19;;;-4.14;100.00
74346;BME280;62776;50.518;6.732;2023-02-28T06:49:21;97581.91;;;-4.11;100.00
74346;BME280;62776;50.518;6.732;2023-02-28T06:52:07;97584.75;;;-4.07;100.00
74346;BME280;62776;50.518;6.732;2023-02-28T06:54:55;97585.78;;;-4.03;100.00
74346;BME280;62776;50.518;6.732;2023-02-28T06:57:48;97588.44;;;-4.02;100.00
74346;BME280;62776;50.518;6.732;2023-02-28T07:00:36;97596.34;;;-3.97;100.00
74346;BME280;62776;50.518;6.732;2023-02-28T07:03:25;97596.72;;;-3.91;100.00
74346;BME280;62776;50.518;6.732;2023-02-28T07:06:12;97602.19;;;-3.85;100.00
74346;BME280;62776;50.518;6.732;2023-02-28T07:08:59;97611.13;;;-3.77;100.00
74346;BME280;62776;50.518;6.732;2023-02-28T07:11:45;97614.84;;;-3.72;100.00
74346;BME280;62776;50.518;6.732;2023-02-28T07:14:32;97610.81;;;-3.69;100.00
74346;BME280;62776;50.518;6.732;2023-02-28T07:17:21;97620.38;;;-3.65;100.00
74346;BME280;62776;50.518;6.732;2023-02-28T07:20:11;97617.84;;;-3.65;100.00
74346;BME280;62776;50.518;6.732;2023-02-28T07:22:59;97615.75;;;-3.57;100.00
74346;BME280;62776;50.518;6.732;2023-02-28T07:25:47;97610.06;;;-3.53;100.00
74346;BME280;62776;50.518;6.732;2023-02-28T07:28:33;97623.16;;;-3.47;100.00
74346;BME280;62776;50.518;6.732;2023-02-28T07:31:20;97621.75;;;-3.42;100.00
74346;BME280;62776;50.518;6.732;2023-02-28T07:34:06;97617.94;;;-3.35;100.00
74346;BME280;62776;50.518;6.732;2023-02-28T07:36:54;97619.84;;;-3.31;100.00
74346;BME280;62776;50.518;6.732;2023-02-28T07:39:41;97617.56;;;-3.27;100.00
74346;BME280;62776;50.518;6.732;2023-02-28T07:42:29;97616.09;;;-3.23;100.00
74346;BME280;62776;50.518;6.732;2023-02-28T07:45:16;97619.28;;;-3.13;100.00
74346;BME280;62776;50.518;6.732;2023-02-28T07:48:04;97612.00;;;-3.07;100.00
74346;BME280;62776;50.518;6.732;2023-02-28T07:50:57;97613.84;;;-3.04;100.00
74346;BME280;62776;50.518;6.732;2023-02-28T07:53:49;97617.13;;;-2.92;100.00
74346;BME280;62776;50.518;6.732;2023-02-28T07:56:36;97617.56;;;-2.84;100.00
74346;BME280;62776;50.518;6.732;2023-02-28T07:59:22;97618.88;;;-2.76;100.00
74346;BME280;62776;50.518;6.732;2023-02-28T08:02:16;97607.09;;;-2.74;100.00
74346;BME280;62776;50.518;6.732;2023-02-28T08:05:05;97607.81;;;-2.62;100.00
74346;BME280;62776;50.518;6.732;2023-02-28T08:07:51;97611.66;;;-2.54;100.00
74346;BME280;62776;50.518;6.732;2023-02-28T08:10:41;97611.06;;;-2.50;100.00
74346;BME280;62776;50.518;6.732;2023-02-28T08:13:30;97602.00;;;-2.45;100.00
74346;BME280;62776;50.518;6.732;2023-02-28T08:16:20;97613.84;;;-2.31;100.00
74346;BME280;62776;50.518;6.732;2023-02-28T08:19:10;97604.97;;;-2.23;100.00
74346;BME280;62776;50.518;6.732;2023-02-28T08:21:57;97608.00;;;-2.14;100.00
74346;BME280;62776;50.518;6.732;2023-02-28T08:24:43;97600.78;;;-2.06;100.00
74346;BME280;62776;50.518;6.732;2023-02-28T08:27:30;97604.63;;;-1.98;100.00
74346;BME280;62776;50.518;6.732;2023-02-28T08:30:16;97615.22;;;-1.91;100.00
74346;BME280;62776;50.518;6.732;2023-02-28T08:33:03;97616.59;;;-1.81;100.00
74346;BME280;62776;50.518;6.732;2023-02-28T08:35:55;97604.91;;;-1.77;100.00
74346;BME280;62776;50.518;6.732;2023-02-28T08:38:42;97609.84;;;-1.64;100.00
74346;BME280;62776;50.518;6.732;2023-02-28T08:41:30;97601.91;;;-1.54;100.00
74346;BME280;62776;50.518;6.732;2023-02-28T08:44:22;97603.25;;;-1.45;100.00
74346;BME280;62776;50.518;6.732;2023-02-28T08:47:09;97608.75;;;-1.37;100.00
74346;BME280;62776;50.518;6.732;2023-02-28T08:49:56;97610.03;;;-1.29;100.00
74346;BME280;62776;50.518;6.732;2023-02-28T08:52:43;97610.34;;;-1.23;100.00
74346;BME280;62776;50.518;6.732;2023-02-28T08:55:31;97597.28;;;-1.13;100.00
74346;BME280;62776;50.518;6.732;2023-02-28T08:58:22;97604.44;;;-1.06;99.53
74346;BME280;62776;50.518;6.732;2023-02-28T09:01:18;97614.84;;;-1.01;98.97
74346;BME280;62776;50.518;6.732;2023-02-28T09:04:05;97608.16;;;-0.83;97.62
74346;BME280;62776;50.518;6.732;2023-02-28T09:06:53;97613.69;;;-0.74;95.23
74346;BME280;62776;50.518;6.732;2023-02-28T09:09:40;97611.59;;;-0.65;92.95
74346;BME280;62776;50.518;6.732;2023-02-28T09:12:40;97608.31;;;-0.63;89.76
74346;BME280;62776;50.518;6.732;2023-02-28T09:15:26;97601.06;;;-0.55;88.74
74346;BME280;62776;50.518;6.732;2023-02-28T09:18:13;97600.59;;;-0.46;85.84
74346;BME280;62776;50.518;6.732;2023-02-28T09:20:59;97600.91;;;-0.40;86.19
74346;BME280;62776;50.518;6.732;2023-02-28T09:23:50;97601.06;;;-0.37;84.83
74346;BME280;62776;50.518;6.732;2023-02-28T09:26:42;97615.88;;;-0.30;83.53
74346;BME280;62776;50.518;6.732;2023-02-28T09:29:28;97610.25;;;-0.23;79.33
74346;BME280;62776;50.518;6.732;2023-02-28T09:32:16;97612.22;;;-0.18;79.46
74346;BME280;62776;50.518;6.732;2023-02-28T09:35:05;97605.44;;;-0.17;77.15
74346;BME280;62776;50.518;6.732;2023-02-28T09:37:53;97615.50;;;-0.20;76.37
74346;BME280;62776;50.518;6.732;2023-02-28T09:40:49;97617.56;;;-0.31;77.06
74346;BME280;62776;50.518;6.732;2023-02-28T09:43:57;97613.97;;;-0.34;77.41
74346;BME280;62776;50.518;6.732;2023-02-28T09:46:50;97614.13;;;-0.31;76.96
74346;BME280;62776;50.518;6.732;2023-02-28T09:49:45;97605.88;;;-0.26;75.66
74346;BME280;62776;50.518;6.732;2023-02-28T09:52:33;97604.78;;;-0.13;74.34
74346;BME280;62776;50.518;6.732;2023-02-28T09:55:37;97595.78;;;-0.05;72.06
74346;BME280;62776;50.518;6.732;2023-02-28T09:58:48;97601.03;;;-0.02;70.51
74346;BME280;62776;50.518;6.732;2023-02-28T10:05:08;97602.75;;;0.17;65.16
74346;BME280;62776;50.518;6.732;2023-02-28T10:08:14;97606.44;;;0.22;65.64
74346;BME280;62776;50.518;6.732;2023-02-28T10:11:06;97605.25;;;0.33;63.68
74346;BME280;62776;50.518;6.732;2023-02-28T10:14:09;97604.66;;;0.38;61.47
74346;BME280;62776;50.518;6.732;2023-02-28T10:20:05;97600.03;;;0.68;63.51
74346;BME280;62776;50.518;6.732;2023-02-28T10:26:14;97590.84;;;0.92;60.48
74346;BME280;62776;50.518;6.732;2023-02-28T10:29:02;97586.38;;;1.07;60.32
74346;BME280;62776;50.518;6.732;2023-02-28T10:31:51;97592.06;;;1.21;60.90
74346;BME280;62776;50.518;6.732;2023-02-28T10:34:38;97594.16;;;1.30;59.26
74346;BME280;62776;50.518;6.732;2023-02-28T10:37:26;97584.44;;;1.42;60.43
74346;BME280;62776;50.518;6.732;2023-02-28T10:43:28;97586.41;;;1.49;60.44
74346;BME280;62776;50.518;6.732;2023-02-28T10:46:17;97589.91;;;1.71;58.33
74346;BME280;62776;50.518;6.732;2023-02-28T10:49:20;97593.22;;;1.69;59.73
74346;BME280;62776;50.518;6.732;2023-02-28T10:52:09;97590.41;;;1.63;58.35
74346;BME280;62776;50.518;6.732;2023-02-28T10:55:15;97590.44;;;1.42;59.39
74346;BME280;62776;50.518;6.732;2023-02-28T10:58:22;97585.22;;;1.41;59.63
74346;BME280;62776;50.518;6.732;2023-02-28T11:01:16;97577.47;;;1.60;60.58
74346;BME280;62776;50.518;6.732;2023-02-28T11:04:03;97588.66;;;1.83;60.38
74346;BME280;62776;50.518;6.732;2023-02-28T11:07:19;97587.59;;;1.77;58.18
74346;BME280;62776;50.518;6.732;2023-02-28T11:10:06;97585.75;;;1.96;57.85
74346;BME280;62776;50.518;6.732;2023-02-28T11:12:56;97576.75;;;2.05;57.62
74346;BME280;62776;50.518;6.732;2023-02-28T11:15:51;97583.41;;;2.00;54.61
74346;BME280;62776;50.518;6.732;2023-02-28T11:18:54;97578.78;;;1.92;55.34
74346;BME280;62776;50.518;6.732;2023-02-28T11:21:52;97580.50;;;1.93;55.74
74346;BME280;62776;50.518;6.732;2023-02-28T11:24:44;97571.88;;;1.91;56.70
74346;BME280;62776;50.518;6.732;2023-02-28T11:30:33;97564.09;;;2.10;57.94
74346;BME280;62776;50.518;6.732;2023-02-28T11:33:53;97554.13;;;2.17;58.50
74346;BME280;62776;50.518;6.732;2023-02-28T11:36:44;97556.09;;;2.70;58.08
74346;BME280;62776;50.518;6.732;2023-02-28T11:39:35;97551.72;;;2.91;53.65
74346;BME280;62776;50.518;6.732;2023-02-28T11:45:59;97559.19;;;3.09;52.51
74346;BME280;62776;50.518;6.732;2023-02-28T11:51:51;97549.44;;;2.99;52.16
74346;BME280;62776;50.518;6.732;2023-02-28T11:55:13;97548.97;;;2.85;51.37
74346;BME280;62776;50.518;6.732;2023-02-28T12:07:15;97536.28;;;3.15;51.40
74346;BME280;62776;50.518;6.732;2023-02-28T12:10:28;97547.78;;;3.01;51.15
74346;BME280;62776;50.518;6.732;2023-02-28T12:16:50;97537.72;;;3.07;49.95
74346;BME280;62776;50.518;6.732;2023-02-28T12:19:53;97531.94;;;3.13;49.81
74346;BME280;62776;50.518;6.732;2023-02-28T12:29:16;97547.63;;;2.96;47.63
74346;BME280;62776;50.518;6.732;2023-02-28T12:32:13;97534.81;;;2.96;49.94
74346;BME280;62776;50.518;6.732;2023-02-28T12:38:04;97535.72;;;2.98;50.90
74346;BME280;62776;50.518;6.732;2023-02-28T12:41:00;97537.56;;;3.03;51.43
74346;BME280;62776;50.518;6.732;2023-02-28T12:44:19;97524.00;;;3.07;50.75
74346;BME280;62776;50.518;6.732;2023-02-28T12:47:05;97527.97;;;3.22;49.02
74346;BME280;62776;50.518;6.732;2023-02-28T12:50:09;97525.16;;;3.15;48.47
74346;BME280;62776;50.518;6.732;2023-02-28T12:53:30;97524.06;;;3.08;49.97
74346;BME280;62776;50.518;6.732;2023-02-28T12:59:26;97514.81;;;3.13;47.65
74346;BME280;62776;50.518;6.732;2023-02-28T13:02:54;97518.56;;;2.97;49.31
74346;BME280;62776;50.518;6.732;2023-02-28T13:09:17;97524.34;;;3.16;48.03
74346;BME280;62776;50.518;6.732;2023-02-28T13:12:13;97518.31;;;3.15;47.93
74346;BME280;62776;50.518;6.732;2023-02-28T13:15:26;97516.41;;;3.10;49.18
74346;BME280;62776;50.518;6.732;2023-02-28T13:18:42;97506.13;;;3.10;48.86
74346;BME280;62776;50.518;6.732;2023-02-28T13:21:42;97520.00;;;3.15;49.31
74346;BME280;62776;50.518;6.732;2023-02-28T13:24:49;97512.94;;;3.08;47.17
74346;BME280;62776;50.518;6.732;2023-02-28T13:27:39;97515.00;;;3.19;47.91
74346;BME280;62776;50.518;6.732;2023-02-28T13:42:58;97503.25;;;3.26;47.66
74346;BME280;62776;50.518;6.732;2023-02-28T13:46:08;97494.19;;;3.10;48.60
74346;BME280;62776;50.518;6.732;2023-02-28T13:49:14;97500.94;;;3.33;49.54
74346;BME280;62776;50.518;6.732;2023-02-28T13:55:17;97503.16;;;3.23;48.77
74346;BME280;62776;50.518;6.732;2023-02-28T14:01:52;97496.34;;;3.25;48.45
74346;BME280;62776;50.518;6.732;2023-02-28T14:05:04;97497.34;;;3.28;49.39
74346;BME280;62776;50.518;6.732;2023-02-28T14:07:53;97500.16;;;3.36;48.64
74346;BME280;62776;50.518;6.732;2023-02-28T14:10:48;97497.31;;;3.27;48.30
74346;BME280;62776;50.518;6.732;2023-02-28T14:13:43;97502.38;;;3.25;48.31
74346;BME280;62776;50.518;6.732;2023-02-28T14:16:46;97496.81;;;3.13;47.24
74346;BME280;62776;50.518;6.732;2023-02-28T14:19:36;97489.44;;;3.22;47.21
74346;BME280;62776;50.518;6.732;2023-02-28T14:31:35;97486.84;;;3.22;48.98
74346;BME280;62776;50.518;6.732;2023-02-28T14:37:38;97474.09;;;3.24;49.60
74346;BME280;62776;50.518;6.732;2023-02-28T14:40:33;97476.69;;;3.25;48.45
74346;BME280;62776;50.518;6.732;2023-02-28T14:43:26;97478.88;;;3.40;49.00
74346;BME280;62776;50.518;6.732;2023-02-28T14:46:14;97466.69;;;4.47;46.73
74346;BME280;62776;50.518;6.732;2023-02-28T14:49:10;97466.22;;;5.62;45.22
74346;BME280;62776;50.518;6.732;2023-02-28T14:52:17;97456.66;;;6.79;42.43
74346;BME280;62776;50.518;6.732;2023-02-28T14:55:15;97454.53;;;7.52;39.84
74346;BME280;62776;50.518;6.732;2023-02-28T14:58:22;97449.38;;;8.14;38.94
74346;BME280;62776;50.518;6.732;2023-02-28T15:01:11;97448.44;;;8.76;37.01
74346;BME280;62776;50.518;6.732;2023-02-28T15:04:03;97450.66;;;9.20;36.57
74346;BME280;62776;50.518;6.732;2023-02-28T15:07:12;97451.06;;;9.68;34.73
74346;BME280;62776;50.518;6.732;2023-02-28T15:10:09;97457.69;;;9.33;35.75
74346;BME280;62776;50.518;6.732;2023-02-28T15:13:11;97456.13;;;9.56;36.14
74346;BME280;62776;50.518;6.732;2023-02-28T15:16:10;97460.72;;;9.86;34.73
74346;BME280;62776;50.518;6.732;2023-02-28T15:19:05;97452.97;;;9.98;34.65
74346;BME280;62776;50.518;6.732;2023-02-28T15:22:06;97450.41;;;9.99;34.30
74346;BME280;62776;50.518;6.732;2023-02-28T15:24:56;97454.69;;;9.97;34.11
74346;BME280;62776;50.518;6.732;2023-02-28T15:27:47;97466.50;;;8.67;35.61
74346;BME280;62776;50.518;6.732;2023-02-28T15:30:35;97480.41;;;7.03;38.57
74346;BME280;62776;50.518;6.732;2023-02-28T15:33:27;97474.97;;;6.04;40.87
74346;BME280;62776;50.518;6.732;2023-02-28T15:36:16;97470.00;;;5.42;42.04
74346;BME280;62776;50.518;6.732;2023-02-28T15:39:25;97476.06;;;4.75;43.88
74346;BME280;62776;50.518;6.732;2023-02-28T15:42:23;97483.63;;;4.39;44.99
74346;BME280;62776;50.518;6.732;2023-02-28T15:45:39;97480.81;;;4.02;45.28
74346;BME280;62776;50.518;6.732;2023-02-28T15:48:33;97477.81;;;4.16;46.02
74346;BME280;62776;50.518;6.732;2023-02-28T15:54:34;97485.88;;;3.71;46.60
74346;BME280;62776;50.518;6.732;2023-02-28T15:57:24;97479.16;;;3.49;47.98
74346;BME280;62776;50.518;6.732;2023-02-28T16:00:14;97486.28;;;3.31;47.88
74346;BME280;62776;50.518;6.732;2023-02-28T16:03:24;97493.75;;;3.23;48.80
74346;BME280;62776;50.518;6.732;2023-02-28T16:06:24;97484.06;;;3.41;47.62
74346;BME280;62776;50.518;6.732;2023-02-28T16:09:15;97482.94;;;3.33;48.73
74346;BME280;62776;50.518;6.732;2023-02-28T16:12:03;97479.88;;;3.18;49.35
74346;BME280;62776;50.518;6.732;2023-02-28T16:14:53;97481.22;;;3.07;50.32
74346;BME280;62776;50.518;6.732;2023-02-28T16:17:40;97477.44;;;2.96;49.76
74346;BME280;62776;50.518;6.732;2023-02-28T16:20:28;97479.53;;;2.82;50.75
74346;BME280;62776;50.518;6.732;2023-02-28T16:23:21;97490.13;;;2.68;50.22
74346;BME280;62776;50.518;6.732;2023-02-28T16:26:10;97493.34;;;2.62;50.14
74346;BME280;62776;50.518;6.732;2023-02-28T16:29:09;97503.38;;;2.55;51.18
74346;BME280;62776;50.518;6.732;2023-02-28T16:32:00;97507.28;;;2.45;51.49
74346;BME280;62776;50.518;6.732;2023-02-28T16:34:47;97498.66;;;2.43;51.86
74346;BME280;62776;50.518;6.732;2023-02-28T16:37:37;97501.84;;;2.36;51.79
74346;BME280;62776;50.518;6.732;2023-02-28T16:40:25;97502.53;;;2.32;52.23
74346;BME280;62776;50.518;6.732;2023-02-28T16:43:17;97516.72;;;2.22;52.63
74346;BME280;62776;50.518;6.732;2023-02-28T16:46:05;97509.84;;;2.21;53.02
74346;BME280;62776;50.518;6.732;2023-02-28T16:48:56;97515.66;;;2.17;52.71
74346;BME280;62776;50.518;6.732;2023-02-28T16:51:45;97512.94;;;2.13;52.70
74346;BME280;62776;50.518;6.732;2023-02-28T16:54:32;97522.19;;;2.09;53.30
74346;BME280;62776;50.518;6.732;2023-02-28T16:57:23;97526.03;;;1.98;53.43
74346;BME280;62776;50.518;6.732;2023-02-28T17:00:12;97524.94;;;1.92;53.24
74346;BME280;62776;50.518;6.732;2023-02-28T17:03:00;97526.66;;;1.93;53.92
74346;BME280;62776;50.518;6.732;2023-02-28T17:05:48;97531.63;;;1.88;53.59
74346;BME280;62776;50.518;6.732;2023-02-28T17:08:36;97530.63;;;1.85;54.31
74346;BME280;62776;50.518;6.732;2023-02-28T17:11:24;97534.66;;;1.78;54.07
74346;BME280;62776;50.518;6.732;2023-02-28T17:14:14;97532.78;;;1.74;54.00